createdAt,value
2019-03-23T16:15:37.405Z,16.96
2019-03-23T16:20:39.895Z,16.75
2019-03-23T16:25:41.521Z,16.60
2019-03-23T16:30:43.208Z,16.47
2019-03-23T16:35:44.823Z,16.32
2019-03-23T16:40:46.599Z,16.16
2019-03-23T16:45:48.349Z,16.00
2019-03-23T16:50:49.954Z,15.84
2019-03-23T16:55:51.850Z,15.76
2019-03-23T17:00:54.414Z,15.69
2019-03-23T17:05:56.055Z,15.58
2019-03-23T17:10:57.681Z,15.54
2019-03-23T17:15:59.568Z,15.47
2019-03-23T17:21:01.279Z,15.39
2019-03-23T17:26:03.740Z,15.27
2019-03-23T17:31:05.325Z,15.17
2019-03-23T17:36:06.975Z,14.97
2019-03-23T17:41:10.371Z,14.75
2019-03-23T17:46:12.189Z,14.60
2019-03-23T17:51:13.759Z,14.47
2019-03-23T17:56:15.451Z,14.38
2019-03-23T18:01:19.644Z,14.29
2019-03-23T18:06:20.532Z,14.21
2019-03-23T18:11:22.209Z,14.16
2019-03-23T18:16:23.901Z,14.07
2019-03-23T18:21:26.038Z,13.99
2019-03-23T18:26:47.619Z,13.94
2019-03-23T18:31:49.353Z,13.85
2019-03-23T18:36:52.777Z,13.80
2019-03-23T18:41:54.339Z,13.72
2019-03-23T18:46:56.010Z,13.65
2019-03-23T18:51:57.560Z,13.58
2019-03-23T18:56:59.124Z,13.50
2019-03-23T19:02:00.742Z,13.48
2019-03-23T19:07:02.299Z,13.45
2019-03-23T19:12:04.153Z,13.32
2019-03-23T19:17:05.860Z,13.21
2019-03-23T19:22:07.475Z,13.18
2019-03-23T19:27:09.032Z,13.13
2019-03-23T19:32:10.593Z,13.10
2019-03-23T19:37:12.159Z,13.08
2019-03-23T19:42:13.708Z,13.02
2019-03-23T19:47:15.306Z,13.00
2019-03-23T19:52:17.097Z,12.95
2019-03-23T19:57:18.653Z,12.91
2019-03-23T20:02:20.217Z,12.86
2019-03-23T20:07:21.778Z,12.81
2019-03-23T20:12:23.687Z,12.74
2019-03-23T20:17:25.444Z,12.69
2019-03-23T20:22:28.104Z,12.63
2019-03-23T20:27:29.979Z,12.59
2019-03-23T20:32:32.672Z,12.56
2019-03-23T20:37:34.616Z,12.51
2019-03-23T20:42:36.379Z,12.48
2019-03-23T20:47:39.434Z,12.44
2019-03-23T20:52:41.116Z,12.40
2019-03-23T20:57:42.670Z,12.34
2019-03-23T21:02:44.237Z,12.30
2019-03-23T21:07:45.899Z,12.24
2019-03-23T21:12:48.611Z,12.22
2019-03-23T21:17:51.410Z,12.10
2019-03-23T21:22:53.299Z,12.04
2019-03-23T21:27:54.846Z,12.02
2019-03-23T21:32:56.416Z,11.97
2019-03-23T21:37:58.111Z,11.86
2019-03-23T21:42:59.671Z,11.77
2019-03-23T21:48:01.258Z,11.78
2019-03-23T21:53:02.918Z,11.77
2019-03-23T21:58:04.677Z,11.76
2019-03-23T22:03:06.339Z,11.73
2019-03-23T22:08:07.900Z,11.68
2019-03-23T22:13:09.463Z,11.66
2019-03-23T22:18:11.543Z,11.66
2019-03-23T22:23:13.148Z,11.69
2019-03-23T22:28:14.716Z,11.70
2019-03-23T22:33:16.283Z,11.62
2019-03-23T22:38:17.831Z,11.50
2019-03-23T22:43:19.424Z,11.37
2019-03-23T22:48:20.973Z,11.29
2019-03-23T22:53:22.616Z,11.14
2019-03-23T22:58:24.200Z,11.02
2019-03-23T23:03:25.802Z,10.98
2019-03-23T23:08:27.360Z,10.99
2019-03-23T23:13:28.953Z,11.01
2019-03-23T23:18:30.600Z,11.08
2019-03-23T23:23:32.196Z,11.14
2019-03-23T23:28:33.840Z,11.19
2019-03-23T23:33:35.414Z,11.25
2019-03-23T23:38:37.032Z,11.31
2019-03-23T23:43:39.024Z,11.33
2019-03-23T23:48:50.677Z,11.38
2019-03-23T23:53:44.039Z,11.36
2019-03-23T23:58:45.600Z,11.30
